createdAt,value
2017-08-29T00:00:04.927Z,0.00
2017-08-29T00:01:04.869Z,0.00
2017-08-29T00:02:04.886Z,0.00
2017-08-29T00:03:04.860Z,0.00
2017-08-29T00:04:04.876Z,0.00
2017-08-29T00:05:04.847Z,0.00
2017-08-29T00:06:04.835Z,0.00
2017-08-29T00:07:04.857Z,0.00
2017-08-29T00:08:04.812Z,0.00
2017-08-29T00:09:04.796Z,0.00
2017-08-29T00:10:04.789Z,0.00
2017-08-29T00:11:04.799Z,0.00
2017-08-29T00:12:04.755Z,0.00
2017-08-29T00:13:04.717Z,0.00
2017-08-29T00:14:04.736Z,0.00
2017-08-29T00:15:04.731Z,0.00
2017-08-29T00:16:04.733Z,0.00
2017-08-29T00:17:04.704Z,0.00
2017-08-29T00:18:04.678Z,0.00
2017-08-29T00:19:04.710Z,0.00
2017-08-29T00:20:04.653Z,0.00
2017-08-29T00:21:04.668Z,0.00
2017-08-29T00:22:04.617Z,0.00
2017-08-29T00:23:04.632Z,0.00
2017-08-29T00:24:04.605Z,0.00
2017-08-29T00:25:04.621Z,0.00
2017-08-29T00:26:04.597Z,0.00
2017-08-29T00:27:04.570Z,0.00
2017-08-29T00:28:04.592Z,0.00
2017-08-29T00:29:04.657Z,0.00
2017-08-29T00:30:04.611Z,0.00
2017-08-29T00:31:04.567Z,0.00
2017-08-29T00:32:04.570Z,0.00
2017-08-29T00:33:04.513Z,0.00
2017-08-29T00:34:04.606Z,0.00
2017-08-29T00:35:04.519Z,0.00
2017-08-29T00:36:04.522Z,0.00
2017-08-29T00:37:04.509Z,0.00
2017-08-29T00:38:04.477Z,0.00
2017-08-29T00:39:04.497Z,0.00
2017-08-29T00:40:04.481Z,0.00
2017-08-29T00:41:04.439Z,0.00
2017-08-29T00:42:04.448Z,0.00
2017-08-29T00:43:04.487Z,0.00
2017-08-29T00:44:04.458Z,0.00
2017-08-29T00:45:04.429Z,0.00
2017-08-29T00:46:04.459Z,0.00
2017-08-29T00:47:04.426Z,0.00
2017-08-29T00:48:04.384Z,0.00
2017-08-29T00:49:04.429Z,0.00
2017-08-29T00:50:04.337Z,0.00
2017-08-29T00:51:04.394Z,0.00
2017-08-29T00:52:04.334Z,0.00
2017-08-29T00:53:04.363Z,0.00
2017-08-29T00:54:04.277Z,0.00
2017-08-29T00:55:04.288Z,0.00
2017-08-29T00:56:04.324Z,0.00
2017-08-29T00:57:04.353Z,0.00
2017-08-29T00:58:04.274Z,0.00
2017-08-29T00:59:04.293Z,0.00
2017-08-29T01:00:04.216Z,0.00
2017-08-29T01:01:04.199Z,0.00
2017-08-29T01:02:04.196Z,0.00
2017-08-29T01:03:04.246Z,0.00
2017-08-29T01:04:04.244Z,0.00
2017-08-29T01:05:04.266Z,0.00
2017-08-29T01:06:04.199Z,0.00
2017-08-29T01:07:04.140Z,0.00
2017-08-29T01:08:04.155Z,0.00
2017-08-29T01:09:04.171Z,0.00
2017-08-29T01:10:04.137Z,0.00
2017-08-29T01:11:04.127Z,0.00
2017-08-29T01:12:04.136Z,0.00
2017-08-29T01:13:04.130Z,0.00
2017-08-29T01:14:04.063Z,0.00
2017-08-29T01:15:04.056Z,0.00
2017-08-29T01:16:04.117Z,0.00
2017-08-29T01:17:04.034Z,0.00
2017-08-29T01:18:04.040Z,0.00
2017-08-29T01:19:04.047Z,0.00
2017-08-29T01:20:04.031Z,0.00
2017-08-29T01:21:04.031Z,0.00
2017-08-29T01:22:04.008Z,0.00
2017-08-29T01:23:03.980Z,0.00
2017-08-29T01:24:03.977Z,0.00
2017-08-29T01:25:03.955Z,0.00
2017-08-29T01:26:03.929Z,0.00
2017-08-29T01:27:03.961Z,0.00
2017-08-29T01:28:03.980Z,0.00
2017-08-29T01:29:03.975Z,0.00
2017-08-29T01:30:03.992Z,0.00
2017-08-29T01:31:03.872Z,0.00
2017-08-29T01:32:03.942Z,0.00
2017-08-29T01:33:03.959Z,0.00
2017-08-29T01:34:03.875Z,0.00
2017-08-29T01:35:03.900Z,0.00
2017-08-29T01:36:03.868Z,0.00
2017-08-29T01:37:03.842Z,0.00
2017-08-29T01:38:03.829Z,0.00
2017-08-29T01:39:03.778Z,0.00
2017-08-29T01:40:03.878Z,0.00
2017-08-29T01:41:03.818Z,0.00
2017-08-29T01:42:03.854Z,0.00
2017-08-29T01:43:03.772Z,0.00
2017-08-29T01:44:03.736Z,0.00
2017-08-29T01:45:03.785Z,0.00
2017-08-29T01:46:03.735Z,0.00
2017-08-29T01:47:03.720Z,0.00
2017-08-29T01:48:03.736Z,0.00
2017-08-29T01:49:03.713Z,0.00
2017-08-29T01:50:03.676Z,0.00
2017-08-29T01:51:03.701Z,0.00
2017-08-29T01:52:03.710Z,0.00
2017-08-29T01:53:03.672Z,0.00
2017-08-29T01:54:03.611Z,0.00
2017-08-29T01:55:03.646Z,0.00
2017-08-29T01:56:03.630Z,0.00
2017-08-29T01:57:03.621Z,0.00
2017-08-29T01:58:03.592Z,0.00
2017-08-29T01:59:03.620Z,0.00
2017-08-29T02:00:03.592Z,0.00
2017-08-29T02:01:03.581Z,0.00
2017-08-29T02:02:03.556Z,0.00
2017-08-29T02:03:03.530Z,0.00
2017-08-29T02:04:03.532Z,0.00
2017-08-29T02:05:03.582Z,0.00
2017-08-29T02:06:03.512Z,0.00
2017-08-29T02:07:03.536Z,0.00
2017-08-29T02:08:03.555Z,0.00
2017-08-29T02:09:03.463Z,0.00
2017-08-29T02:10:03.440Z,0.00
2017-08-29T02:11:03.440Z,0.00
2017-08-29T02:12:03.424Z,0.00
2017-08-29T02:13:03.519Z,0.00
2017-08-29T02:14:03.417Z,0.00
2017-08-29T02:15:03.475Z,0.00
2017-08-29T02:16:03.401Z,0.00
2017-08-29T02:17:03.443Z,0.00
2017-08-29T02:18:03.414Z,0.00
2017-08-29T02:19:03.395Z,0.00
2017-08-29T02:20:03.359Z,0.00
2017-08-29T02:21:03.353Z,0.00
2017-08-29T02:22:03.344Z,0.00
2017-08-29T02:23:03.356Z,0.00
2017-08-29T02:24:03.301Z,0.00
2017-08-29T02:25:03.295Z,0.00
2017-08-29T02:26:03.307Z,0.00
2017-08-29T02:27:03.343Z,0.00
2017-08-29T02:28:03.244Z,0.00
2017-08-29T02:29:03.248Z,0.00
2017-08-29T02:30:03.254Z,0.00
2017-08-29T02:31:03.216Z,0.00
2017-08-29T02:32:03.247Z,0.00
2017-08-29T02:33:03.200Z,0.00
2017-08-29T02:34:03.205Z,0.00
2017-08-29T02:35:03.199Z,0.00
2017-08-29T02:36:03.337Z,0.00
2017-08-29T02:37:03.222Z,0.00
2017-08-29T02:38:03.144Z,0.00
2017-08-29T02:39:03.125Z,0.00
2017-08-29T02:40:03.245Z,0.00
2017-08-29T02:41:03.111Z,0.00
2017-08-29T02:42:03.100Z,0.00
2017-08-29T02:43:03.106Z,0.00
2017-08-29T02:44:03.096Z,0.00
2017-08-29T02:45:03.045Z,0.00
2017-08-29T02:46:03.149Z,0.00
2017-08-29T02:47:03.075Z,0.00
2017-08-29T02:48:03.055Z,0.00
2017-08-29T02:49:03.116Z,0.00
2017-08-29T02:50:03.043Z,0.00
2017-08-29T02:51:03.062Z,0.00
2017-08-29T02:52:03.025Z,0.00
2017-08-29T02:53:03.054Z,0.00
2017-08-29T02:54:02.973Z,0.00
2017-08-29T02:55:02.983Z,0.00
2017-08-29T02:56:02.984Z,0.00
2017-08-29T02:57:02.997Z,0.00
2017-08-29T02:58:02.977Z,0.00
2017-08-29T02:59:02.991Z,0.00
2017-08-29T03:00:02.917Z,0.00
2017-08-29T03:01:02.888Z,0.00
2017-08-29T03:02:02.868Z,0.00
2017-08-29T03:03:02.882Z,0.00
2017-08-29T03:04:02.884Z,0.00
2017-08-29T03:05:02.932Z,0.00
2017-08-29T03:06:02.954Z,0.00
2017-08-29T03:07:02.868Z,0.00
2017-08-29T03:08:02.833Z,0.00
2017-08-29T03:09:02.844Z,0.00
2017-08-29T03:10:02.872Z,0.00
2017-08-29T03:11:02.801Z,0.00
2017-08-29T03:12:02.805Z,0.00
2017-08-29T03:13:02.820Z,0.00
2017-08-29T03:14:02.824Z,0.00
2017-08-29T03:15:02.756Z,0.00
2017-08-29T03:16:02.747Z,0.00
2017-08-29T03:17:02.740Z,0.00
2017-08-29T03:18:02.705Z,0.00
2017-08-29T03:19:02.728Z,0.00
2017-08-29T03:20:02.651Z,0.00
2017-08-29T03:21:02.702Z,0.00
2017-08-29T03:22:02.628Z,0.00
2017-08-29T03:23:02.671Z,0.00
2017-08-29T03:24:02.658Z,0.00
2017-08-29T03:25:02.621Z,0.00
2017-08-29T03:26:02.654Z,0.00
2017-08-29T03:27:02.814Z,0.00
2017-08-29T03:28:02.584Z,0.00
2017-08-29T03:29:02.633Z,0.00
2017-08-29T03:30:02.580Z,0.00
2017-08-29T03:31:02.585Z,0.00
2017-08-29T03:32:02.524Z,0.00
2017-08-29T03:33:02.515Z,0.00
2017-08-29T03:34:02.485Z,0.00
2017-08-29T03:35:02.512Z,0.00
2017-08-29T03:36:02.483Z,0.00
2017-08-29T03:37:02.535Z,0.00
2017-08-29T03:38:02.467Z,0.00
2017-08-29T03:39:02.492Z,0.00
2017-08-29T03:40:02.513Z,0.00
2017-08-29T03:41:02.448Z,0.00
2017-08-29T03:42:02.448Z,0.00
2017-08-29T03:43:02.415Z,0.00
2017-08-29T03:44:02.442Z,0.00
2017-08-29T03:45:02.407Z,0.00
2017-08-29T03:46:02.428Z,0.00
2017-08-29T03:47:02.417Z,0.00
2017-08-29T03:48:02.442Z,0.00
2017-08-29T03:49:02.457Z,0.00
2017-08-29T03:50:02.356Z,0.00
2017-08-29T03:51:02.356Z,0.00
2017-08-29T03:52:02.349Z,0.00
2017-08-29T03:53:02.336Z,0.00
2017-08-29T03:54:02.324Z,0.00
2017-08-29T03:55:02.308Z,0.00
2017-08-29T03:56:02.269Z,0.00
2017-08-29T03:57:02.333Z,0.00
2017-08-29T03:58:02.326Z,0.00
2017-08-29T03:59:02.212Z,0.00
2017-08-29T04:00:02.257Z,0.00
2017-08-29T04:01:02.239Z,0.00
2017-08-29T04:02:02.166Z,0.00
2017-08-29T04:03:02.280Z,0.00
2017-08-29T04:04:02.924Z,0.00
2017-08-29T04:05:02.177Z,0.00
2017-08-29T04:06:02.129Z,0.00
2017-08-29T04:07:02.183Z,0.00
2017-08-29T04:08:02.146Z,0.00
2017-08-29T04:09:02.117Z,0.00
2017-08-29T04:10:02.209Z,4.00
2017-08-29T04:11:02.107Z,4.00
2017-08-29T04:12:02.161Z,0.00
2017-08-29T04:13:02.104Z,4.00
2017-08-29T04:14:02.091Z,4.00
2017-08-29T04:15:02.065Z,8.00
2017-08-29T04:16:02.033Z,8.00
2017-08-29T04:17:02.077Z,8.00
2017-08-29T04:18:01.970Z,8.00
2017-08-29T04:19:02.045Z,12.00
2017-08-29T04:20:01.999Z,12.00
2017-08-29T04:21:01.991Z,16.00
2017-08-29T04:22:01.993Z,16.00
2017-08-29T04:23:01.969Z,24.00
2017-08-29T04:24:02.020Z,28.00
2017-08-29T04:25:01.931Z,32.00
2017-08-29T04:26:01.896Z,40.00
2017-08-29T04:27:01.915Z,48.00
2017-08-29T04:28:01.921Z,52.00
2017-08-29T04:29:01.841Z,64.00
2017-08-29T04:30:01.847Z,72.00
2017-08-29T04:31:01.821Z,84.00
2017-08-29T04:32:01.806Z,96.00
2017-08-29T04:33:01.795Z,112.00
2017-08-29T04:34:01.861Z,124.00
2017-08-29T04:35:01.848Z,144.00
2017-08-29T04:36:01.822Z,160.00
2017-08-29T04:37:01.825Z,180.00
2017-08-29T04:38:01.782Z,200.00
2017-08-29T04:39:01.730Z,224.00
2017-08-29T04:40:01.696Z,248.00
2017-08-29T04:41:01.728Z,268.00
2017-08-29T04:42:01.756Z,296.00
2017-08-29T04:43:01.722Z,324.00
2017-08-29T04:44:01.708Z,352.00
2017-08-29T04:45:01.676Z,380.00
2017-08-29T04:46:01.693Z,412.00
2017-08-29T04:47:01.650Z,444.00
2017-08-29T04:48:01.665Z,480.00
2017-08-29T04:49:01.673Z,512.00
2017-08-29T04:50:01.653Z,544.00
2017-08-29T04:51:01.571Z,580.00
2017-08-29T04:52:01.638Z,616.00
2017-08-29T04:53:01.574Z,652.00
2017-08-29T04:54:01.589Z,688.00
2017-08-29T04:55:01.551Z,724.00
2017-08-29T04:56:01.510Z,760.00
2017-08-29T04:57:01.581Z,800.00
2017-08-29T04:58:01.544Z,840.00
2017-08-29T04:59:01.561Z,876.00
2017-08-29T05:00:01.503Z,916.00
2017-08-29T05:01:01.492Z,952.00
2017-08-29T05:02:01.466Z,996.00
2017-08-29T05:03:01.428Z,1032.00
2017-08-29T05:04:01.488Z,1068.00
2017-08-29T05:05:01.434Z,1108.00
2017-08-29T05:06:01.402Z,1144.00
2017-08-29T05:07:01.372Z,1184.00
2017-08-29T05:08:01.414Z,1224.00
2017-08-29T05:09:01.389Z,1260.00
2017-08-29T05:10:01.381Z,1300.00
2017-08-29T05:11:01.343Z,1336.00
2017-08-29T05:12:01.344Z,1376.00
2017-08-29T05:13:01.315Z,1416.00
2017-08-29T05:14:01.308Z,1452.00
2017-08-29T05:15:01.350Z,1488.00
2017-08-29T05:16:01.276Z,1524.00
2017-08-29T05:17:01.241Z,1564.00
2017-08-29T05:18:01.241Z,1596.00
2017-08-29T05:19:01.227Z,1632.00
2017-08-29T05:20:01.226Z,1664.00
2017-08-29T05:21:01.276Z,1696.00
2017-08-29T05:22:01.200Z,1732.00
2017-08-29T05:23:01.196Z,1764.00
2017-08-29T05:24:01.162Z,1796.00
2017-08-29T05:25:01.199Z,1832.00
2017-08-29T05:26:01.162Z,1860.00
2017-08-29T05:27:01.155Z,1892.00
2017-08-29T05:28:01.124Z,1924.00
2017-08-29T05:29:01.130Z,1956.00
2017-08-29T05:30:01.104Z,1992.00
2017-08-29T05:31:01.101Z,2028.00
2017-08-29T05:32:01.136Z,2064.00
2017-08-29T05:33:01.108Z,2096.00
2017-08-29T05:34:01.082Z,2128.00
2017-08-29T05:35:01.037Z,2164.00
2017-08-29T05:36:01.062Z,2204.00
2017-08-29T05:37:01.034Z,2240.00
2017-08-29T05:38:01.046Z,2276.00
2017-08-29T05:39:01.034Z,2316.00
2017-08-29T05:40:00.988Z,2352.00
2017-08-29T05:41:01.062Z,2384.00
2017-08-29T05:42:00.982Z,2424.00
2017-08-29T05:43:00.980Z,2460.00
2017-08-29T05:44:00.990Z,2500.00
2017-08-29T05:45:00.909Z,2536.00
2017-08-29T05:46:00.982Z,2576.00
2017-08-29T05:47:01.005Z,2608.00
2017-08-29T05:48:01.280Z,2648.00
2017-08-29T05:49:00.943Z,2692.00
2017-08-29T05:50:02.292Z,2728.00
2017-08-29T05:51:01.478Z,2764.00
2017-08-29T05:52:00.873Z,2804.00
2017-08-29T05:53:00.950Z,2836.00
2017-08-29T05:54:00.909Z,2872.00
2017-08-29T05:55:00.848Z,2912.00
2017-08-29T05:56:00.845Z,2936.00
2017-08-29T05:57:00.864Z,2968.00
2017-08-29T05:58:00.819Z,3008.00
2017-08-29T05:59:00.842Z,3040.00
2017-08-29T06:00:00.809Z,3040.00
2017-08-29T06:01:00.770Z,3064.00
2017-08-29T06:02:00.803Z,3028.00
2017-08-29T06:03:00.722Z,3044.00
2017-08-29T06:04:00.758Z,3060.00
2017-08-29T06:05:00.746Z,3152.00
2017-08-29T06:06:00.744Z,3156.00
2017-08-29T06:07:00.669Z,3156.00
2017-08-29T06:08:00.671Z,3152.00
2017-08-29T06:09:00.667Z,3168.00
2017-08-29T06:10:00.645Z,3180.00
2017-08-29T06:11:00.626Z,3192.00
2017-08-29T06:12:00.674Z,3188.00
2017-08-29T06:13:00.642Z,3180.00
2017-08-29T06:14:00.613Z,3200.00
2017-08-29T06:15:00.621Z,3244.00
2017-08-29T06:16:00.645Z,3280.00
2017-08-29T06:17:00.591Z,3300.00
2017-08-29T06:18:00.615Z,3328.00
2017-08-29T06:19:00.565Z,3368.00
2017-08-29T06:20:00.523Z,3384.00
2017-08-29T06:21:00.581Z,3396.00
2017-08-29T06:22:00.523Z,3396.00
2017-08-29T06:23:00.527Z,3380.00
2017-08-29T06:24:00.488Z,3380.00
2017-08-29T06:25:00.471Z,3376.00
2017-08-29T06:26:00.478Z,3380.00
2017-08-29T06:27:00.526Z,3404.00
2017-08-29T06:28:00.440Z,3444.00
2017-08-29T06:29:01.044Z,3468.00
2017-08-29T06:30:00.406Z,3500.00
2017-08-29T06:31:00.414Z,3508.00
2017-08-29T06:32:00.437Z,3520.00
2017-08-29T06:33:00.433Z,3576.00
2017-08-29T06:34:00.353Z,3596.00
2017-08-29T06:35:00.344Z,3588.00
2017-08-29T06:36:00.360Z,3604.00
2017-08-29T06:37:00.377Z,3648.00
2017-08-29T06:38:00.370Z,3716.00
2017-08-29T06:39:00.329Z,3756.00
2017-08-29T06:40:00.277Z,3760.00
2017-08-29T06:41:00.332Z,3780.00
2017-08-29T06:42:00.318Z,3804.00
2017-08-29T06:43:00.254Z,3820.00
2017-08-29T06:44:00.261Z,3820.00
2017-08-29T06:45:00.318Z,3832.00
2017-08-29T06:46:00.280Z,3844.00
2017-08-29T06:47:00.197Z,3856.00
2017-08-29T06:48:00.207Z,3856.00
2017-08-29T06:49:00.244Z,3880.00
2017-08-29T06:50:00.206Z,3896.00
2017-08-29T06:51:00.170Z,3916.00
2017-08-29T06:52:00.156Z,3956.00
2017-08-29T06:53:00.163Z,3936.00
2017-08-29T06:54:00.134Z,4004.00
2017-08-29T06:55:00.138Z,4056.00
2017-08-29T06:56:00.124Z,4104.00
2017-08-29T06:57:00.081Z,4136.00
2017-08-29T06:58:00.074Z,4180.00
2017-08-29T06:59:00.128Z,4236.00
2017-08-29T07:00:00.053Z,4284.00
2017-08-29T07:01:00.049Z,4316.00
2017-08-29T07:02:00.068Z,4380.00
2017-08-29T07:03:00.057Z,4380.00
2017-08-29T07:03:59.987Z,4396.00
2017-08-29T07:04:59.994Z,4412.00
2017-08-29T07:05:59.996Z,4436.00
2017-08-29T07:07:00.004Z,4440.00
2017-08-29T07:07:59.978Z,4432.00
2017-08-29T07:08:59.932Z,4456.00
2017-08-29T07:09:59.927Z,4472.00
2017-08-29T07:10:59.971Z,4472.00
2017-08-29T07:11:59.997Z,4448.00
2017-08-29T07:12:59.899Z,4472.00
2017-08-29T07:13:59.889Z,4468.00
2017-08-29T07:14:59.917Z,4468.00
2017-08-29T07:15:59.860Z,4464.00
2017-08-29T07:16:59.856Z,4488.00
2017-08-29T07:17:59.905Z,4492.00
2017-08-29T07:18:59.835Z,4420.00
2017-08-29T07:19:59.796Z,4440.00
2017-08-29T07:20:59.797Z,4440.00
2017-08-29T07:21:59.796Z,4528.00
2017-08-29T07:22:59.786Z,4536.00
2017-08-29T07:23:59.802Z,4420.00
2017-08-29T07:24:59.796Z,4484.00
2017-08-29T07:25:59.726Z,4492.00
2017-08-29T07:26:59.736Z,4516.00
2017-08-29T07:27:59.757Z,4548.00
2017-08-29T07:28:59.712Z,4548.00
2017-08-29T07:29:59.690Z,4536.00
2017-08-29T07:30:59.675Z,4544.00
2017-08-29T07:31:59.732Z,4564.00
2017-08-29T07:32:59.706Z,4520.00
2017-08-29T07:33:59.691Z,4552.00
2017-08-29T07:34:59.701Z,4540.00
2017-08-29T07:35:59.708Z,4520.00
2017-08-29T07:36:59.666Z,4512.00
2017-08-29T07:37:59.676Z,4432.00
2017-08-29T07:38:59.613Z,4440.00
2017-08-29T07:39:59.598Z,4436.00
2017-08-29T07:40:59.598Z,4416.00
2017-08-29T07:41:59.582Z,4432.00
2017-08-29T07:42:59.614Z,4408.00
2017-08-29T07:43:59.544Z,4344.00
2017-08-29T07:44:59.519Z,4396.00
2017-08-29T07:45:59.587Z,4384.00
2017-08-29T07:46:59.505Z,4364.00
2017-08-29T07:47:59.493Z,4372.00
2017-08-29T07:48:59.563Z,4236.00
2017-08-29T07:49:59.515Z,4340.00
2017-08-29T07:50:59.441Z,4284.00
2017-08-29T07:51:59.445Z,4160.00
2017-08-29T07:52:59.446Z,4136.00
2017-08-29T07:53:59.422Z,4160.00
2017-08-29T07:54:59.483Z,4192.00
2017-08-29T07:55:59.428Z,4404.00
2017-08-29T07:56:59.410Z,4400.00
2017-08-29T07:57:59.406Z,4340.00
2017-08-29T07:58:59.383Z,4396.00
2017-08-29T07:59:59.364Z,4388.00
2017-08-29T08:00:59.333Z,4388.00
2017-08-29T08:01:59.339Z,4276.00
2017-08-29T08:02:59.370Z,4380.00
2017-08-29T08:03:59.326Z,4372.00
2017-08-29T08:04:59.291Z,4424.00
2017-08-29T08:05:59.355Z,4436.00
2017-08-29T08:06:59.351Z,4508.00
2017-08-29T08:07:59.246Z,4588.00
2017-08-29T08:08:59.240Z,4624.00
2017-08-29T08:09:59.276Z,4664.00
2017-08-29T08:10:59.288Z,4668.00
2017-08-29T08:11:59.282Z,4680.00
2017-08-29T08:12:59.311Z,4688.00
2017-08-29T08:13:59.255Z,4704.00
2017-08-29T08:14:59.221Z,4700.00
2017-08-29T08:15:59.164Z,4696.00
2017-08-29T08:16:59.157Z,4676.00
2017-08-29T08:17:59.148Z,4656.00
2017-08-29T08:18:59.155Z,4664.00
2017-08-29T08:19:59.183Z,4668.00
2017-08-29T08:20:59.154Z,4668.00
2017-08-29T08:21:59.167Z,4656.00
2017-08-29T08:22:59.097Z,4668.00
2017-08-29T08:23:59.090Z,4684.00
2017-08-29T08:24:59.115Z,4672.00
2017-08-29T08:25:59.097Z,4672.00
2017-08-29T08:26:59.090Z,4676.00
2017-08-29T08:27:59.045Z,4656.00
2017-08-29T08:28:59.096Z,4656.00
2017-08-29T08:29:59.060Z,4732.00
2017-08-29T08:30:59.025Z,4764.00
2017-08-29T08:31:59.074Z,4784.00
2017-08-29T08:32:59.016Z,4832.00
2017-08-29T08:33:59.041Z,4848.00
2017-08-29T08:34:59.004Z,4848.00
2017-08-29T08:35:58.984Z,4864.00
2017-08-29T08:36:58.994Z,4888.00
2017-08-29T08:37:58.953Z,4908.00
2017-08-29T08:38:58.956Z,4932.00
2017-08-29T08:39:58.892Z,4956.00
2017-08-29T08:40:58.899Z,4996.00
2017-08-29T08:41:58.991Z,5012.00
2017-08-29T08:42:58.893Z,5040.00
2017-08-29T08:43:58.902Z,5060.00
2017-08-29T08:44:58.867Z,5072.00
2017-08-29T08:45:58.861Z,5088.00
2017-08-29T08:46:58.915Z,5132.00
2017-08-29T08:47:58.858Z,4896.00
2017-08-29T08:48:58.842Z,5100.00
2017-08-29T08:49:58.797Z,5168.00
2017-08-29T08:50:58.860Z,5156.00
2017-08-29T08:51:58.825Z,5204.00
2017-08-29T08:52:58.769Z,5220.00
2017-08-29T08:53:58.868Z,5260.00
2017-08-29T08:54:58.757Z,5272.00
2017-08-29T08:55:58.778Z,5228.00
2017-08-29T08:56:58.727Z,5344.00
2017-08-29T08:57:58.756Z,5372.00
2017-08-29T08:58:58.754Z,5376.00
2017-08-29T08:59:58.724Z,5392.00
2017-08-29T09:00:58.702Z,5428.00
2017-08-29T09:01:58.715Z,5440.00
2017-08-29T09:02:58.766Z,5476.00
2017-08-29T09:03:58.668Z,5524.00
2017-08-29T09:04:58.656Z,5508.00
2017-08-29T09:05:58.750Z,5476.00
2017-08-29T09:06:58.698Z,5428.00
2017-08-29T09:07:58.676Z,5592.00
2017-08-29T09:08:58.607Z,5564.00
2017-08-29T09:09:58.612Z,5580.00
2017-08-29T09:10:58.616Z,5536.00
2017-08-29T09:11:58.644Z,5448.00
2017-08-29T09:12:58.634Z,5676.00
2017-08-29T09:13:58.592Z,5656.00
2017-08-29T09:14:58.569Z,5696.00
2017-08-29T09:15:58.553Z,5724.00
2017-08-29T09:16:58.575Z,5748.00
2017-08-29T09:17:58.495Z,5604.00
2017-08-29T09:18:58.532Z,5728.00
2017-08-29T09:19:58.513Z,5732.00
2017-08-29T09:20:58.522Z,5552.00
2017-08-29T09:21:58.483Z,5748.00
2017-08-29T09:22:58.547Z,5836.00
2017-08-29T09:23:58.548Z,5748.00
2017-08-29T09:24:58.490Z,5676.00
2017-08-29T09:25:58.417Z,5840.00
2017-08-29T09:26:58.423Z,5784.00
2017-08-29T09:27:58.473Z,5796.00
2017-08-29T09:28:58.463Z,5804.00
2017-08-29T09:29:58.393Z,5816.00
2017-08-29T09:30:58.426Z,5856.00
2017-08-29T09:31:58.401Z,5848.00
2017-08-29T09:32:58.385Z,5864.00
2017-08-29T09:33:58.397Z,5700.00
2017-08-29T09:34:58.364Z,5776.00
2017-08-29T09:35:58.364Z,5908.00
2017-08-29T09:36:58.355Z,5896.00
2017-08-29T09:37:58.313Z,5936.00
2017-08-29T09:38:58.333Z,5992.00
2017-08-29T09:39:58.336Z,6048.00
2017-08-29T09:40:58.286Z,6132.00
2017-08-29T09:41:58.288Z,6232.00
2017-08-29T09:42:58.266Z,6344.00
2017-08-29T09:43:58.262Z,6540.00
2017-08-29T09:44:58.301Z,6716.00
2017-08-29T09:45:58.242Z,6872.00
2017-08-29T09:46:58.297Z,7072.00
2017-08-29T09:47:58.209Z,7264.00
2017-08-29T09:48:58.221Z,7484.00
2017-08-29T09:49:58.250Z,7704.00
2017-08-29T09:50:58.234Z,7904.00
2017-08-29T09:51:58.217Z,8084.00
2017-08-29T09:52:58.243Z,8280.00
2017-08-29T09:53:58.210Z,8520.00
2017-08-29T09:54:58.201Z,8740.00
2017-08-29T09:55:58.181Z,8952.00
2017-08-29T09:56:58.177Z,9180.00
2017-08-29T09:57:58.147Z,9300.00
2017-08-29T09:58:58.223Z,9324.00
2017-08-29T09:59:58.119Z,9792.00
2017-08-29T10:00:58.103Z,9960.00
2017-08-29T10:01:58.106Z,10108.00
2017-08-29T10:02:58.155Z,10324.00
2017-08-29T10:03:58.062Z,10460.00
2017-08-29T10:04:58.154Z,10552.00
2017-08-29T10:05:58.036Z,10756.00
2017-08-29T10:06:58.071Z,11204.00
2017-08-29T10:07:58.087Z,11448.00
2017-08-29T10:08:58.017Z,11992.00
2017-08-29T10:09:58.017Z,12264.00
2017-08-29T10:10:57.994Z,12400.00
2017-08-29T10:11:58.074Z,12612.00
2017-08-29T10:12:58.000Z,12820.00
2017-08-29T10:13:57.968Z,12924.00
2017-08-29T10:14:57.988Z,13200.00
2017-08-29T10:15:57.924Z,13336.00
2017-08-29T10:16:58.010Z,13552.00
2017-08-29T10:17:57.981Z,13632.00
2017-08-29T10:18:57.936Z,13900.00
2017-08-29T10:19:57.894Z,14316.00
2017-08-29T10:20:57.917Z,14352.00
2017-08-29T10:21:57.920Z,14520.00
2017-08-29T10:22:57.897Z,14644.00
2017-08-29T10:23:57.895Z,14640.00
2017-08-29T10:24:57.933Z,15168.00
2017-08-29T10:25:57.866Z,15424.00
2017-08-29T10:26:57.847Z,15776.00
2017-08-29T10:27:57.837Z,15808.00
2017-08-29T10:28:57.900Z,15808.00
2017-08-29T10:29:57.814Z,16096.00
2017-08-29T10:30:57.798Z,16384.00
2017-08-29T10:31:57.817Z,16512.00
2017-08-29T10:32:57.759Z,16640.00
2017-08-29T10:33:57.795Z,16768.00
2017-08-29T10:34:57.802Z,16704.00
2017-08-29T10:35:57.756Z,16800.00
2017-08-29T10:36:57.801Z,17024.00
2017-08-29T10:37:57.749Z,17056.00
2017-08-29T10:38:57.785Z,17216.00
2017-08-29T10:39:57.729Z,17408.00
2017-08-29T10:40:57.713Z,17472.00
2017-08-29T10:41:57.699Z,17568.00
2017-08-29T10:42:57.704Z,17728.00
2017-08-29T10:43:57.701Z,17728.00
2017-08-29T10:44:57.727Z,17376.00
2017-08-29T10:45:57.672Z,17248.00
2017-08-29T10:46:57.659Z,17344.00
2017-08-29T10:47:57.663Z,17280.00
2017-08-29T10:48:57.662Z,17280.00
2017-08-29T10:49:57.646Z,17280.00
2017-08-29T10:50:57.621Z,16864.00
2017-08-29T10:51:57.720Z,17312.00
2017-08-29T10:52:57.636Z,17344.00
2017-08-29T10:53:57.596Z,17216.00
2017-08-29T10:54:57.608Z,17248.00
2017-08-29T10:55:57.579Z,17120.00
2017-08-29T10:56:57.631Z,17120.00
2017-08-29T10:57:57.586Z,17376.00
2017-08-29T10:58:57.576Z,17440.00
2017-08-29T10:59:57.567Z,17472.00
2017-08-29T11:00:57.573Z,16992.00
2017-08-29T11:01:57.598Z,16768.00
2017-08-29T11:02:57.621Z,16512.00
2017-08-29T11:03:57.550Z,16448.00
2017-08-29T11:04:57.533Z,16352.00
2017-08-29T11:05:57.569Z,16000.00
2017-08-29T11:06:57.611Z,16128.00
2017-08-29T11:07:57.556Z,16192.00
2017-08-29T11:08:57.477Z,16448.00
2017-08-29T11:09:57.467Z,16736.00
2017-08-29T11:10:57.512Z,16928.00
2017-08-29T11:11:57.499Z,16544.00
2017-08-29T11:12:57.492Z,16736.00
2017-08-29T11:13:57.457Z,16384.00
2017-08-29T11:14:57.505Z,15904.00
2017-08-29T11:15:57.463Z,16000.00
2017-08-29T11:16:57.412Z,15968.00
2017-08-29T11:17:57.444Z,15688.00
2017-08-29T11:18:57.477Z,15660.00
2017-08-29T11:19:57.444Z,15376.00
2017-08-29T11:20:57.399Z,14940.00
2017-08-29T11:21:57.397Z,14920.00
2017-08-29T11:22:57.379Z,14992.00
2017-08-29T11:23:57.372Z,15056.00
2017-08-29T11:24:57.382Z,14764.00
2017-08-29T11:25:57.425Z,14752.00
2017-08-29T11:26:57.409Z,15140.00
2017-08-29T11:27:57.352Z,15156.00
2017-08-29T11:28:57.342Z,16352.00
2017-08-29T11:29:57.354Z,16992.00
2017-08-29T11:30:57.358Z,18048.00
2017-08-29T11:31:57.316Z,17088.00
2017-08-29T11:32:57.304Z,17568.00
2017-08-29T11:33:57.335Z,18304.00
2017-08-29T11:34:57.348Z,18144.00
2017-08-29T11:35:57.297Z,19072.00
2017-08-29T11:36:57.313Z,18944.00
2017-08-29T11:37:57.278Z,19200.00
2017-08-29T11:38:57.290Z,20480.00
2017-08-29T11:39:57.243Z,20640.00
2017-08-29T11:40:57.275Z,20800.00
2017-08-29T11:41:57.239Z,20800.00
2017-08-29T11:42:57.319Z,22016.00
2017-08-29T11:43:57.265Z,23360.00
2017-08-29T11:44:57.295Z,24192.00
2017-08-29T11:45:57.317Z,24512.00
2017-08-29T11:46:57.276Z,24864.00
2017-08-29T11:47:57.301Z,24928.00
2017-08-29T11:48:57.192Z,24800.00
2017-08-29T11:49:57.230Z,24992.00
2017-08-29T11:50:57.223Z,25408.00
2017-08-29T11:51:57.186Z,25632.00
2017-08-29T11:52:57.228Z,26304.00
2017-08-29T11:53:57.177Z,26080.00
2017-08-29T11:54:57.184Z,27136.00
2017-08-29T11:55:57.244Z,27264.00
2017-08-29T11:56:57.159Z,27904.00
2017-08-29T11:57:57.146Z,28288.00
2017-08-29T11:58:57.180Z,28768.00
2017-08-29T11:59:57.205Z,29024.00
2017-08-29T12:00:57.208Z,29728.00
2017-08-29T12:01:57.188Z,30432.00
2017-08-29T12:02:57.178Z,40160.00
2017-08-29T12:03:57.199Z,55392.00
2017-08-29T12:04:57.124Z,72512.00
2017-08-29T12:05:57.159Z,85120.00
2017-08-29T12:06:57.098Z,79200.00
2017-08-29T12:07:57.237Z,112768.00
2017-08-29T12:08:57.115Z,125632.00
2017-08-29T12:09:57.092Z,109184.00
2017-08-29T12:10:57.094Z,87488.00
2017-08-29T12:11:57.114Z,89056.00
2017-08-29T12:12:57.149Z,83968.00
2017-08-29T12:13:57.088Z,74016.00
2017-08-29T12:14:57.079Z,65568.00
2017-08-29T12:15:57.095Z,77248.00
2017-08-29T12:16:57.095Z,89088.00
2017-08-29T12:17:57.162Z,77952.00
2017-08-29T12:18:57.067Z,77632.00
2017-08-29T12:19:57.114Z,75712.00
2017-08-29T12:20:57.217Z,59040.00
2017-08-29T12:21:57.096Z,58464.00
2017-08-29T12:22:57.097Z,72896.00
2017-08-29T12:23:57.114Z,76512.00
2017-08-29T12:24:57.028Z,69536.00
2017-08-29T12:25:57.092Z,78208.00